Surface observations / UK / EGMC

Quebec | Canada | USA | France | UK | Europe | Elsewhere

Display: Info & Location for EGMC | Help decoding METAR

EGMC SOUTHEND-ON-SEA -- UK
Raw surface observations for station EGMC
EGMC 281350Z 26013KT 210V280 CAVOK 11/M07 Q1017=
EGMC 281320Z 25015KT 210V280 CAVOK 12/M05 Q1017=
EGMC 281250Z 28013KT 250V310 CAVOK 13/M05 Q1017=
EGMC 281220Z 26015KT 210V290 CAVOK 12/M05 Q1017=
EGMC 281150Z 26016KT 9999 FEW048 11/M05 Q1017=
EGMC 281120Z 26014KT 9999 FEW048 11/M06 Q1017=
EGMC 281050Z 28012KT 240V320 9999 FEW048 11/M04 Q1017=
EGMC 281020Z 28012KT 240V320 9999 FEW048 10/M03 Q1017=
EGMC 280950Z 27012KT 240V310 9999 FEW043 09/M02 Q1017=
EGMC 280920Z 28012KT 250V320 9999 FEW039 09/M01 Q1016=
EGMC 280850Z 28011KT 250V310 9999 FEW034 09/M01 Q1016=
EGMC 280820Z 28012KT 250V320 9999 FEW015 08/M01 Q1016=
EGMC 280750Z 28014KT 9999 FEW015 07/M01 Q1016=
EGMC 280720Z 27013KT 9999 FEW015 07/00 Q1015=
EGMC 280650Z 27013KT 9999 FEW015 06/00 Q1015=
EGMC 280620Z 26010KT 9999 FEW015 05/01 Q1015=
EGMC 280550Z 25009KT 9999 FEW015 05/01 Q1014=
EGMC 280520Z 26009KT 9999 FEW015 04/01 Q1014=
EGMC 280450Z 26009KT 9999 FEW015 05/01 Q1013=
EGMC 280350Z 25008KT CAVOK 05/01 Q1013=
EGMC 280250Z 26008KT CAVOK 05/01 Q1012=
EGMC 280150Z 25010KT CAVOK 06/01 Q1012=
EGMC 272350Z 26008KT CAVOK 07/01 Q1012=
EGMC 272320Z 27007KT CAVOK 08/01 Q1012=
EGMC 272250Z 28005KT CAVOK 08/03 Q1012=
EGMC 272220Z 27005KT CAVOK 08/03 Q1011=
EGMC 272150Z 24007KT CAVOK 08/03 Q1011=
EGMC 272120Z 18009KT 9999 FEW045 08/04 Q1011=
EGMC 272050Z 17009KT 9999 FEW045 08/03 Q1011=
EGMC 272020Z 16010KT 9999 FEW045 08/02 Q1011=
EGMC 271950Z 17010KT 9999 FEW045 09/03 Q1012=
EGMC 271920Z 16010KT 9999 FEW045 09/03 Q1011=
EGMC 271850Z 16008KT 9999 FEW045 08/03 Q1011=
EGMC 271820Z 14008KT 9999 FEW045 08/02 Q1011=
EGMC 271750Z 13008KT 9999 FEW045 09/02 Q1011=
EGMC 271720Z 12009KT 9999 FEW045 08/01 Q1011=
EGMC 271650Z 11009KT 9999 FEW045 09/02 Q1011=
EGMC 271620Z 11009KT 9999 FEW045 09/03 Q1011=
EGMC 271550Z 09008KT 9999 FEW045 10/03 Q1011=
EGMC 271520Z 11008KT 080V140 9999 FEW045 10/03 Q1011=
EGMC 271450Z 11009KT 080V150 9999 FEW045 10/02 Q1011=
EGMC 271420Z 12008KT 080V150 9999 FEW031 10/03 Q1011=